Time;durP1;ratioP1;P1;durP2;ratioP2;P2;SDS_P1;SDS_P2;PMS_P1;PMS_P2;Temp;Humidity;BMP_temperature;BMP_pressure;BME280_temperature;BME280_humidity;BME280_pressure;Samples;Min_cycle;Max_cycle;Signal;HPM_P1;HPM_P2
2022/06/10 00:00:30;;;;;;;22.33;1.75;;;18.40;99.90;;;;;;5015353;28;20215;-80
2022/06/10 00:02:56;;;;;;;11.05;1.35;;;18.40;99.90;;;;;;5014426;28;20640;-82
2022/06/10 00:05:29;;;;;;;3.90;1.25;;;18.40;99.90;;;;;;5015706;28;20244;-80
2022/06/10 00:07:55;;;;;;;8.82;1.30;;;18.30;99.90;;;;;;5016281;28;20172;-79
2022/06/10 00:10:23;;;;;;;13.45;2.00;;;18.30;99.90;;;;;;5015709;28;20188;-79
2022/06/10 00:12:49;;;;;;;8.55;1.98;;;18.20;99.90;;;;;;5015600;28;20176;-79
2022/06/10 00:15:15;;;;;;;7.82;1.40;;;18.20;99.90;;;;;;5015149;28;20576;-79
2022/06/10 00:17:41;;;;;;;6.35;1.83;;;18.30;99.90;;;;;;5015748;28;20180;-79
2022/06/10 00:20:09;;;;;;;10.23;1.77;;;18.20;99.90;;;;;;5015219;28;20204;-79
2022/06/10 00:22:35;;;;;;;14.68;1.88;;;18.20;99.90;;;;;;5015133;28;20195;-79
2022/06/10 00:25:01;;;;;;;6.63;1.50;;;18.20;99.90;;;;;;5014175;28;20625;-78
2022/06/10 00:27:27;;;;;;;15.20;1.60;;;18.50;99.90;;;;;;5014986;28;20273;-80
2022/06/10 00:29:53;;;;;;;8.55;0.95;;;18.40;99.90;;;;;;5015486;28;20196;-81
2022/06/10 00:32:18;;;;;;;6.93;1.40;;;18.30;99.90;;;;;;5014831;28;20164;-80
2022/06/10 00:34:44;;;;;;;14.35;1.95;;;18.30;99.90;;;;;;5014620;28;20699;-81
2022/06/10 00:37:10;;;;;;;7.15;1.50;;;18.40;99.90;;;;;;5015216;28;20165;-79
2022/06/10 00:39:36;;;;;;;7.60;1.80;;;18.30;99.90;;;;;;5013403;28;20719;-80
2022/06/10 00:42:05;;;;;;;9.73;1.55;;;18.40;99.90;;;;;;5014735;28;20169;-80
2022/06/10 00:44:36;;;;;;;7.47;1.48;;;18.40;99.90;;;;;;5013432;28;20161;-81
2022/06/10 00:47:11;;;;;;;3.55;1.42;;;18.40;99.90;;;;;;5015068;28;20681;-89
2022/06/10 00:49:38;;;;;;;10.02;1.70;;;18.30;99.90;;;;;;5014909;28;20635;-80
2022/06/10 00:52:04;;;;;;;6.18;1.75;;;18.30;99.90;;;;;;5013789;28;20207;-80
2022/06/10 00:54:33;;;;;;;5.88;1.48;;;18.40;99.90;;;;;;5014386;28;20196;-84
2022/06/10 00:57:09;;;;;;;5.97;1.60;;;18.40;99.90;;;;;;5013736;28;20196;-79
2022/06/10 00:59:40;;;;;;;7.18;1.40;;;18.30;99.90;;;;;;5015351;28;20215;-81
2022/06/10 01:02:13;;;;;;;14.57;1.38;;;18.50;99.90;;;;;;5014466;28;20185;-83
2022/06/10 01:04:40;;;;;;;14.57;2.00;;;18.40;99.90;;;;;;5014656;28;20165;-81
2022/06/10 01:07:08;;;;;;;9.40;1.30;;;18.50;99.90;;;;;;5014610;28;20200;-81
2022/06/10 01:09:34;;;;;;;11.82;1.90;;;18.30;99.90;;;;;;5013972;28;20208;-80
2022/06/10 01:12:12;;;;;;;10.30;2.10;;;18.20;99.90;;;;;;5014335;28;20168;-80
2022/06/10 01:14:49;;;;;;;5.10;1.60;;;18.10;99.90;;;;;;5014333;28;20180;-80
2022/06/10 01:17:52;;;;;;;8.45;1.52;;;18.20;99.90;;;;;;5014070;28;20253;-80
2022/06/10 01:20:28;;;;;;;3.95;1.50;;;18.20;99.90;;;;;;5013609;28;20207;-80
2022/06/10 01:23:51;;;;;;;9.90;1.70;;;18.20;99.90;;;;;;5014189;28;20167;-79
2022/06/10 01:29:55;;;;;;;5.93;1.75;;;18.30;99.90;;;;;;5014115;28;20198;-79
2022/06/10 01:32:32;;;;;;;9.13;1.85;;;18.20;99.90;;;;;;5015462;28;20169;-79
2022/06/10 01:35:23;;;;;;;5.28;1.30;;;18.30;99.90;;;;;;5014482;28;20171;-80
2022/06/10 01:38:09;;;;;;;7.05;1.30;;;18.30;99.90;;;;;;5014283;28;20222;-79
2022/06/10 01:41:15;;;;;;;13.48;1.70;;;18.50;99.90;;;;;;5013111;28;20204;-80
2022/06/10 01:44:11;;;;;;;9.60;2.10;;;18.60;99.90;;;;;;5009792;28;20219;-80
2022/06/10 01:46:44;;;;;;;12.07;1.90;;;18.40;99.90;;;;;;5013733;28;20165;-80
2022/06/10 01:49:24;;;;;;;6.70;1.75;;;18.20;99.90;;;;;;5011807;28;20204;-79
2022/06/10 01:52:02;;;;;;;8.23;2.03;;;18.30;99.90;;;;;;5012256;28;20200;-80
2022/06/10 01:54:41;;;;;;;7.50;1.60;;;18.40;99.90;;;;;;5013588;28;20249;-79
2022/06/10 01:59:56;;;;;;;9.13;1.55;;;18.30;99.90;;;;;;5051994;28;20642;-81
2022/06/10 02:02:27;;;;;;;6.90;1.90;;;18.30;99.90;;;;;;5052197;28;20175;-81
2022/06/10 02:05:01;;;;;;;16.52;1.98;;;18.50;99.90;;;;;;5053772;28;20191;-83
2022/06/10 02:07:34;;;;;;;7.95;1.85;;;18.50;99.90;;;;;;5052323;28;20181;-82
2022/06/10 02:10:14;;;;;;;14.93;1.40;;;18.30;99.90;;;;;;5053660;28;20203;-82
2022/06/10 02:12:44;;;;;;;24.42;3.08;;;18.30;99.90;;;;;;5051430;28;20163;-80
2022/06/10 02:15:34;;;;;;;5.15;1.58;;;18.40;99.90;;;;;;5051205;28;20163;-81
2022/06/10 02:18:13;;;;;;;7.93;1.83;;;18.40;99.90;;;;;;5052645;28;20504;-84
2022/06/10 02:20:50;;;;;;;7.80;2.58;;;18.20;99.90;;;;;;5051476;28;20261;-80
2022/06/10 02:23:24;;;;;;;8.25;1.70;;;18.20;99.90;;;;;;5052891;28;20171;-81
2022/06/10 02:25:55;;;;;;;10.70;2.55;;;18.10;99.90;;;;;;5053049;28;20167;-81
2022/06/10 02:28:51;;;;;;;9.50;2.70;;;18.00;99.90;;;;;;5051820;28;20171;-82
2022/06/10 02:31:18;;;;;;;12.10;2.75;;;18.20;99.90;;;;;;5050541;28;20245;-81
2022/06/10 02:33:44;;;;;;;8.90;2.42;;;18.30;99.90;;;;;;5051964;28;20167;-82
2022/06/10 02:36:17;;;;;;;8.95;2.72;;;18.20;99.90;;;;;;5052913;28;20566;-80
2022/06/10 02:39:08;;;;;;;12.40;2.78;;;18.10;99.90;;;;;;5051245;28;20167;-82
2022/06/10 02:41:50;;;;;;;14.07;2.95;;;18.00;99.90;;;;;;5051187;28;20214;-81
2022/06/10 02:44:29;;;;;;;7.63;2.80;;;18.00;99.90;;;;;;5052601;28;20229;-80
2022/06/10 02:47:00;;;;;;;7.35;3.33;;;18.00;99.90;;;;;;5051403;28;20639;-81
2022/06/10 02:49:26;;;;;;;8.00;3.35;;;18.20;99.90;;;;;;5053003;28;20248;-81
2022/06/10 02:51:52;;;;;;;17.17;3.45;;;18.20;99.90;;;;;;5052116;28;20270;-80
2022/06/10 02:54:30;;;;;;;11.38;2.85;;;18.20;99.90;;;;;;5053214;28;20167;-81
2022/06/10 02:56:56;;;;;;;7.75;3.08;;;18.20;99.90;;;;;;5051751;28;20163;-81
2022/06/10 03:02:41;;;;;;;8.68;3.60;;;18.40;99.90;;;;;;5053379;28;20178;-81
2022/06/10 03:05:29;;;;;;;11.27;4.40;;;18.10;99.90;;;;;;5055229;28;20217;-81
2022/06/10 03:08:03;;;;;;;10.57;5.18;;;18.30;99.90;;;;;;5058126;28;20171;-82
2022/06/10 03:11:01;;;;;;;21.17;6.40;;;18.30;99.90;;;;;;5056664;28;20224;-81
2022/06/10 03:13:38;;;;;;;22.48;6.03;;;18.30;99.90;;;;;;5047322;28;20183;-81
2022/06/10 03:16:52;;;;;;;13.10;5.65;;;18.30;99.90;;;;;;5057187;28;20178;-82
2022/06/10 03:19:45;;;;;;;9.88;4.70;;;18.10;99.90;;;;;;5037679;28;20210;-83
2022/06/10 03:22:29;;;;;;;14.05;4.18;;;18.20;99.90;;;;;;5057694;28;20185;-81
2022/06/10 03:25:05;;;;;;;7.32;3.47;;;18.20;99.90;;;;;;5058556;28;20175;-80
2022/06/10 03:27:48;;;;;;;19.50;3.13;;;18.20;99.90;;;;;;5060069;28;20170;-81
2022/06/10 03:30:18;;;;;;;7.22;3.00;;;18.30;99.90;;;;;;5060215;28;20193;-82
2022/06/10 03:33:07;;;;;;;8.02;2.70;;;18.20;99.90;;;;;;5060967;28;20171;-81
2022/06/10 03:35:38;;;;;;;8.77;2.38;;;18.20;99.90;;;;;;5077703;28;20237;-81
2022/06/10 03:38:05;;;;;;;8.23;1.92;;;18.10;99.90;;;;;;5070007;28;20172;-81
2022/06/10 03:40:32;;;;;;;9.93;2.10;;;18.00;99.90;;;;;;5061099;28;20203;-80
2022/06/10 03:43:01;;;;;;;5.68;1.85;;;18.20;99.90;;;;;;5059030;28;20233;-80
2022/06/10 03:45:42;;;;;;;14.95;2.15;;;18.20;99.90;;;;;;5060822;28;20229;-81
2022/06/10 03:48:14;;;;;;;6.40;1.60;;;18.10;99.90;;;;;;5060199;28;20198;-81
2022/06/10 03:50:40;;;;;;;3.30;1.55;;;18.00;99.90;;;;;;5055927;28;20195;-82
2022/06/10 03:53:07;;;;;;;3.22;1.20;;;18.20;99.90;;;;;;5055932;28;20250;-81
2022/06/10 03:55:32;;;;;;;6.13;2.03;;;18.00;99.90;;;;;;5055688;28;20226;-81
2022/06/10 03:57:58;;;;;;;7.15;1.45;;;18.00;99.90;;;;;;5054239;28;20187;-81
2022/06/10 04:00:27;;;;;;;11.77;1.33;;;18.00;99.90;;;;;;5055780;28;20683;-81
2022/06/10 04:02:53;;;;;;;7.53;1.60;;;17.90;99.90;;;;;;5055650;28;20175;-81
2022/06/10 04:05:19;;;;;;;6.80;1.13;;;18.10;99.90;;;;;;5054091;28;20633;-81
2022/06/10 04:07:45;;;;;;;9.00;1.33;;;18.30;99.90;;;;;;5055519;28;20170;-81
2022/06/10 04:10:17;;;;;;;6.68;1.33;;;18.30;99.90;;;;;;5055288;28;20187;-82
2022/06/10 04:12:43;;;;;;;4.82;1.27;;;18.30;99.90;;;;;;5055634;28;20167;-81
2022/06/10 04:15:14;;;;;;;6.32;1.38;;;18.20;99.90;;;;;;5055456;28;20178;-81
2022/06/10 04:17:42;;;;;;;5.28;1.27;;;18.20;99.90;;;;;;5054086;28;20182;-81
2022/06/10 04:20:10;;;;;;;3.45;1.20;;;18.20;99.90;;;;;;5055004;28;20206;-82
2022/06/10 04:22:37;;;;;;;7.38;1.50;;;18.20;99.90;;;;;;5055235;28;20179;-83
2022/06/10 04:25:03;;;;;;;3.03;1.67;;;18.30;99.90;;;;;;5053678;28;20174;-81
2022/06/10 04:27:29;;;;;;;7.43;1.38;;;18.30;99.90;;;;;;5055045;28;20167;-82
2022/06/10 04:29:54;;;;;;;7.43;1.40;;;18.40;99.90;;;;;;5055106;28;20221;-81
2022/06/10 04:32:20;;;;;;;9.18;1.60;;;18.40;99.90;;;;;;5053898;28;20163;-82
2022/06/10 04:34:45;;;;;;;12.43;1.80;;;18.40;99.90;;;;;;5053873;28;20171;-82
2022/06/10 04:37:11;;;;;;;6.88;1.35;;;18.50;99.90;;;;;;5054202;28;20167;-83
2022/06/10 04:39:37;;;;;;;7.07;1.27;;;18.40;99.90;;;;;;5054805;28;20182;-82
2022/06/10 04:42:03;;;;;;;5.00;1.48;;;18.30;99.90;;;;;;5062350;28;20174;-82
2022/06/10 04:44:29;;;;;;;4.78;1.40;;;18.30;99.90;;;;;;5041988;28;20204;-81
2022/06/10 04:46:54;;;;;;;5.40;1.23;;;18.20;99.90;;;;;;5058437;28;20175;-81
2022/06/10 04:49:20;;;;;;;3.63;1.35;;;18.30;99.90;;;;;;5058412;28;20194;-79
2022/06/10 04:51:46;;;;;;;5.50;1.00;;;18.30;99.90;;;;;;5063262;28;20171;-81
2022/06/10 04:54:11;;;;;;;8.13;1.60;;;18.60;99.90;;;;;;5056433;28;20179;-83
2022/06/10 04:56:38;;;;;;;10.50;1.23;;;18.50;99.90;;;;;;5055362;28;20202;-81
2022/06/10 04:59:03;;;;;;;5.18;1.13;;;18.30;99.90;;;;;;5057380;28;20209;-81
2022/06/10 05:01:29;;;;;;;10.35;1.33;;;18.30;99.90;;;;;;5058278;28;20317;-80
2022/06/10 05:03:58;;;;;;;7.38;0.90;;;18.50;99.90;;;;;;5058672;28;20243;-81
2022/06/10 05:06:23;;;;;;;15.10;1.10;;;18.50;99.90;;;;;;5063412;28;20175;-81
2022/06/10 05:08:49;;;;;;;7.35;1.52;;;18.60;99.90;;;;;;5055660;28;20195;-81
2022/06/10 05:11:15;;;;;;;4.97;1.45;;;18.30;99.90;;;;;;5054508;28;20270;-81
2022/06/10 05:13:41;;;;;;;2.45;1.20;;;18.30;99.90;;;;;;5054582;28;20580;-81
2022/06/10 05:16:06;;;;;;;7.55;1.35;;;18.40;99.90;;;;;;5054645;28;20712;-81
2022/06/10 05:18:32;;;;;;;7.63;1.50;;;18.60;99.90;;;;;;5054068;28;20171;-82
2022/06/10 05:20:59;;;;;;;6.72;1.08;;;18.50;99.90;;;;;;5052986;28;20282;-81
2022/06/10 05:23:25;;;;;;;7.88;1.25;;;18.40;99.90;;;;;;5053343;28;20174;-80
2022/06/10 05:25:51;;;;;;;5.55;1.35;;;18.30;99.90;;;;;;5054424;28;20708;-82
2022/06/10 05:28:18;;;;;;;10.55;1.25;;;18.50;99.90;;;;;;5055076;28;20159;-80
2022/06/10 05:30:44;;;;;;;10.98;1.42;;;18.60;99.90;;;;;;5054245;28;20297;-80
2022/06/10 05:33:11;;;;;;;6.93;1.10;;;18.90;99.90;;;;;;5053803;28;20174;-80
2022/06/10 05:35:38;;;;;;;7.57;1.77;;;18.80;99.90;;;;;;5055125;28;20226;-80
2022/06/10 05:38:05;;;;;;;13.20;1.67;;;18.90;99.90;;;;;;5054732;28;20217;-80
2022/06/10 05:40:32;;;;;;;8.38;1.63;;;18.90;99.90;;;;;;5054830;28;20284;-79
2022/06/10 05:42:58;;;;;;;7.63;2.05;;;19.00;99.90;;;;;;5061134;28;20167;-81
2022/06/10 05:45:24;;;;;;;8.48;1.40;;;19.00;99.90;;;;;;5063831;28;20213;-81
2022/06/10 05:47:55;;;;;;;5.15;1.20;;;18.90;99.90;;;;;;5065545;28;20167;-81
2022/06/10 05:50:25;;;;;;;5.10;1.10;;;19.00;99.90;;;;;;5057615;28;20187;-81
2022/06/10 05:52:51;;;;;;;13.88;1.48;;;19.10;99.90;;;;;;5058573;28;20171;-82
2022/06/10 05:55:18;;;;;;;5.90;1.38;;;19.20;99.90;;;;;;5061517;28;20217;-78
2022/06/10 05:57:45;;;;;;;5.22;1.42;;;19.00;99.90;;;;;;5059925;28;20183;-78
2022/06/10 06:00:16;;;;;;;11.65;2.20;;;19.10;99.90;;;;;;5059862;28;20701;-80
2022/06/10 06:02:42;;;;;;;10.25;1.65;;;19.20;99.90;;;;;;5058160;28;20167;-78
2022/06/10 06:05:11;;;;;;;8.07;1.70;;;19.30;99.90;;;;;;5066175;28;20174;-80
2022/06/10 06:07:39;;;;;;;11.93;2.50;;;19.40;99.90;;;;;;5076094;28;20234;-80
2022/06/10 06:10:05;;;;;;;4.30;1.60;;;19.70;99.90;;;;;;5070653;28;20191;-84
2022/06/10 06:12:31;;;;;;;5.85;1.55;;;19.70;99.90;;;;;;5077219;28;20186;-85
2022/06/10 06:14:57;;;;;;;4.65;1.15;;;19.70;99.90;;;;;;5078024;28;20159;-84
2022/06/10 06:17:23;;;;;;;9.27;1.50;;;19.70;99.90;;;;;;5076359;28;20205;-89
2022/06/10 06:19:49;;;;;;;12.63;1.58;;;19.50;99.90;;;;;;5076468;28;20210;-89
2022/06/10 06:22:15;;;;;;;13.60;1.52;;;19.50;99.90;;;;;;5077035;28;20238;-83
2022/06/10 06:24:41;;;;;;;6.18;1.27;;;19.60;99.90;;;;;;5073039;28;20223;-85
2022/06/10 06:27:10;;;;;;;8.85;1.35;;;19.60;99.90;;;;;;5074926;28;20155;-86
2022/06/10 06:29:35;;;;;;;10.73;1.55;;;19.90;99.90;;;;;;5053577;28;20218;-79
2022/06/10 06:32:01;;;;;;;8.98;1.42;;;20.00;99.90;;;;;;5055019;28;20175;-80
2022/06/10 06:34:27;;;;;;;8.65;1.98;;;20.00;99.90;;;;;;5054202;28;20187;-80
2022/06/10 06:36:54;;;;;;;9.85;1.00;;;20.00;99.90;;;;;;5054541;28;20569;-79
2022/06/10 06:39:23;;;;;;;3.28;1.67;;;20.10;99.90;;;;;;5053750;28;20183;-78
2022/06/10 06:41:50;;;;;;;8.48;1.40;;;20.10;99.90;;;;;;5055090;28;20671;-78
2022/06/10 06:44:16;;;;;;;3.58;1.10;;;20.20;99.90;;;;;;5053983;28;20294;-79
2022/06/10 06:46:43;;;;;;;2.17;1.00;;;20.00;99.90;;;;;;5053850;28;20167;-80
2022/06/10 06:49:14;;;;;;;11.48;1.90;;;20.00;99.90;;;;;;5053678;28;20186;-79
2022/06/10 06:51:40;;;;;;;5.55;1.58;;;20.10;99.90;;;;;;5053134;28;20164;-80
2022/06/10 06:54:09;;;;;;;7.78;1.85;;;20.00;99.90;;;;;;5053847;28;20168;-79
2022/06/10 06:56:36;;;;;;;12.55;1.42;;;20.10;99.90;;;;;;5053026;28;20179;-81
2022/06/10 06:59:03;;;;;;;9.77;1.58;;;19.90;99.90;;;;;;5053140;28;20195;-80
2022/06/10 07:01:29;;;;;;;6.85;1.50;;;20.00;99.90;;;;;;5057530;28;20211;-81
2022/06/10 07:03:54;;;;;;;10.13;1.60;;;19.80;99.90;;;;;;5057483;28;20528;-79
2022/06/10 07:06:20;;;;;;;9.15;1.90;;;19.80;99.90;;;;;;5057661;28;20209;-79
2022/06/10 07:08:45;;;;;;;7.20;2.08;;;20.00;99.90;;;;;;5057743;28;20206;-80
2022/06/10 07:11:11;;;;;;;7.15;1.92;;;20.00;99.90;;;;;;5057300;28;20645;-79
2022/06/10 07:13:38;;;;;;;14.27;2.00;;;20.10;99.90;;;;;;5056384;28;20178;-78
2022/06/10 07:16:05;;;;;;;9.05;2.65;;;20.20;99.90;;;;;;5057040;28;20644;-80
2022/06/10 07:18:31;;;;;;;6.82;1.90;;;20.20;99.90;;;;;;5057395;28;20222;-80
2022/06/10 07:20:58;;;;;;;8.23;2.10;;;20.50;99.90;;;;;;5057290;28;20281;-79
2022/06/10 07:23:24;;;;;;;10.13;1.55;;;20.60;99.90;;;;;;5057282;28;20159;-79
2022/06/10 07:25:50;;;;;;;3.35;1.83;;;20.50;99.90;;;;;;5057133;28;20189;-79
2022/06/10 07:28:15;;;;;;;11.77;1.98;;;20.30;99.90;;;;;;5056341;28;20687;-79
2022/06/10 07:30:42;;;;;;;13.88;1.90;;;20.60;99.90;;;;;;5055957;28;20197;-79
2022/06/10 07:33:08;;;;;;;8.07;1.88;;;20.50;99.90;;;;;;5057224;28;20180;-78
2022/06/10 07:35:34;;;;;;;6.63;2.00;;;20.50;99.90;;;;;;5057016;28;20186;-78
2022/06/10 07:38:00;;;;;;;9.98;2.50;;;20.50;99.90;;;;;;5057333;28;20262;-78
2022/06/10 07:43:17;;;;;;;11.00;2.28;;;20.60;99.90;;;;;;5056793;28;20198;-79
2022/06/10 07:45:42;;;;;;;10.35;2.78;;;21.00;99.90;;;;;;5056855;28;20168;-79
2022/06/10 07:48:10;;;;;;;15.90;2.33;;;21.10;99.90;;;;;;5056372;28;20221;-79
2022/06/10 07:50:37;;;;;;;9.38;1.88;;;21.20;99.90;;;;;;5063768;28;20189;-84
2022/06/10 07:53:02;;;;;;;9.82;2.13;;;21.10;99.90;;;;;;5066065;28;20171;-83
2022/06/10 07:55:28;;;;;;;9.70;2.40;;;21.40;99.90;;;;;;5065924;28;20152;-82
2022/06/10 07:57:54;;;;;;;15.45;2.95;;;21.40;99.90;;;;;;5075211;22;20244;-81
2022/06/10 08:00:22;;;;;;;4.55;2.05;;;21.20;99.90;;;;;;5055150;28;20762;-82
2022/06/10 08:02:47;;;;;;;9.57;2.08;;;21.40;99.90;;;;;;5057595;28;20175;-80
2022/06/10 08:05:15;;;;;;;9.90;2.45;;;21.40;99.90;;;;;;5062435;28;20217;-81
2022/06/10 08:07:41;;;;;;;7.45;2.17;;;21.60;99.90;;;;;;5063860;28;20175;-80
2022/06/10 08:10:14;;;;;;;14.50;2.03;;;21.50;99.90;;;;;;5062105;28;20187;-80
2022/06/10 08:12:40;;;;;;;7.32;2.42;;;21.90;99.90;;;;;;5056091;28;20159;-81
2022/06/10 08:15:06;;;;;;;11.93;2.95;;;21.80;99.90;;;;;;5054986;28;20170;-82
2022/06/10 08:17:31;;;;;;;7.35;2.17;;;21.60;99.90;;;;;;5054909;28;20178;-82
2022/06/10 08:19:57;;;;;;;5.30;1.92;;;21.90;99.90;;;;;;5053591;28;20199;-82
2022/06/10 08:22:38;;;;;;;21.67;2.45;;;22.10;99.90;;;;;;5053715;28;20623;-81
2022/06/10 08:25:06;;;;;;;4.65;1.90;;;22.40;99.90;;;;;;5053486;28;20175;-81
2022/06/10 08:27:33;;;;;;;9.15;2.05;;;22.60;99.90;;;;;;5053713;28;20167;-81
2022/06/10 08:29:58;;;;;;;15.15;2.53;;;22.50;99.90;;;;;;5053578;28;20532;-82
2022/06/10 08:32:24;;;;;;;5.30;2.70;;;22.40;99.90;;;;;;5054692;28;20174;-82
2022/06/10 08:34:50;;;;;;;10.32;1.83;;;22.10;99.90;;;;;;5054342;28;20671;-81
2022/06/10 08:37:17;;;;;;;20.48;3.00;;;21.90;99.90;;;;;;5053393;28;20178;-82
2022/06/10 08:39:42;;;;;;;10.45;2.45;;;22.00;99.90;;;;;;5053226;28;20252;-83
2022/06/10 08:42:20;;;;;;;25.85;2.20;;;22.30;99.90;;;;;;5053060;28;20179;-82
2022/06/10 08:44:52;;;;;;;14.02;2.15;;;22.50;99.90;;;;;;5052697;28;20522;-81
2022/06/10 08:47:39;;;;;;;9.13;2.53;;;22.70;99.90;;;;;;5054459;28;20167;-82
2022/06/10 08:50:27;;;;;;;8.80;2.30;;;23.00;99.90;;;;;;5053985;28;20226;-82
2022/06/10 08:52:58;;;;;;;8.77;2.85;;;23.10;99.90;;;;;;5053017;28;20229;-82
2022/06/10 08:56:03;;;;;;;5.88;2.70;;;23.00;99.90;;;;;;5052933;28;20189;-82
2022/06/10 08:58:44;;;;;;;10.73;2.55;;;23.00;99.90;;;;;;5052964;28;20194;-83
2022/06/10 09:01:18;;;;;;;12.60;2.25;;;23.00;99.90;;;;;;5054525;28;20206;-81
2022/06/10 09:04:10;;;;;;;6.28;2.25;;;23.00;99.90;;;;;;5054174;28;20167;-82
2022/06/10 09:07:05;;;;;;;15.32;2.20;;;22.40;99.90;;;;;;5052918;28;20182;-83
2022/06/10 09:09:33;;;;;;;7.72;2.42;;;22.70;99.90;;;;;;5051946;28;20234;-82
2022/06/10 09:12:21;;;;;;;17.20;1.95;;;22.90;99.90;;;;;;5053867;28;20210;-82
2022/06/10 09:14:50;;;;;;;8.80;1.95;;;23.30;99.90;;;;;;5052633;28;20171;-82
2022/06/10 09:17:25;;;;;;;9.80;2.60;;;23.40;99.90;;;;;;5053866;28;20167;-81
2022/06/10 09:19:53;;;;;;;11.63;2.78;;;23.50;99.90;;;;;;5052299;28;20187;-81
2022/06/10 09:22:53;;;;;;;10.73;3.10;;;23.60;99.90;;;;;;5052108;28;20653;-81
2022/06/10 09:25:44;;;;;;;10.80;2.30;;;23.40;99.90;;;;;;5052695;28;20221;-81
2022/06/10 09:28:10;;;;;;;12.02;1.92;;;23.50;99.90;;;;;;5054096;28;20658;-82
2022/06/10 09:30:46;;;;;;;11.20;1.85;;;23.60;99.90;;;;;;5053972;28;20699;-81
2022/06/10 09:33:15;;;;;;;11.40;3.00;;;23.50;99.90;;;;;;5053871;28;20202;-81
2022/06/10 09:35:53;;;;;;;10.95;2.42;;;23.60;99.90;;;;;;5052876;28;20586;-83
2022/06/10 09:38:22;;;;;;;5.80;2.10;;;23.70;99.90;;;;;;5052436;28;20292;-83
2022/06/10 09:41:20;;;;;;;8.93;2.00;;;23.90;99.90;;;;;;5051987;28;20222;-82
2022/06/10 09:44:23;;;;;;;8.80;2.47;;;24.00;99.90;;;;;;5053447;28;20633;-82
2022/06/10 09:47:17;;;;;;;11.25;2.20;;;23.80;99.90;;;;;;5053325;28;20539;-83
2022/06/10 09:50:06;;;;;;;14.38;2.08;;;23.50;99.90;;;;;;5052701;28;20253;-81
2022/06/10 09:52:45;;;;;;;6.15;1.90;;;23.80;99.90;;;;;;5051463;28;20596;-82
2022/06/10 09:55:19;;;;;;;15.75;2.47;;;23.90;99.90;;;;;;5051656;28;20167;-83
2022/06/10 09:58:18;;;;;;;8.07;2.00;;;24.10;99.90;;;;;;5053203;28;20305;-83
2022/06/10 10:00:52;;;;;;;5.18;1.92;;;24.50;99.90;;;;;;5052412;28;20287;-82
2022/06/10 10:03:28;;;;;;;6.80;2.28;;;24.30;99.90;;;;;;5051688;28;20187;-82
2022/06/10 10:06:00;;;;;;;10.10;2.55;;;24.40;99.90;;;;;;5051312;28;20181;-82
2022/06/10 10:08:47;;;;;;;11.70;3.08;;;24.60;99.90;;;;;;5051749;28;20685;-83
2022/06/10 10:11:32;;;;;;;9.70;2.50;;;24.80;99.90;;;;;;5051393;28;20175;-83
2022/06/10 10:14:26;;;;;;;13.35;3.92;;;24.70;99.90;;;;;;5051580;28;20175;-82
2022/06/10 10:16:55;;;;;;;12.52;3.80;;;24.80;99.90;;;;;;5051413;28;20203;-82
2022/06/10 10:19:42;;;;;;;23.88;3.90;;;25.00;99.90;;;;;;5051140;28;20522;-83
2022/06/10 10:22:41;;;;;;;13.27;3.90;;;25.10;99.90;;;;;;5051358;28;20182;-82
2022/06/10 10:25:17;;;;;;;14.75;4.20;;;24.90;99.90;;;;;;5051226;28;20697;-83
2022/06/10 10:27:44;;;;;;;12.57;4.95;;;24.80;99.90;;;;;;5052201;28;20202;-82
2022/06/10 10:30:21;;;;;;;17.02;5.75;;;24.80;99.90;;;;;;5050882;28;20183;-82
2022/06/10 10:32:53;;;;;;;13.45;4.22;;;24.80;99.90;;;;;;5052295;28;20167;-82
2022/06/10 10:35:48;;;;;;;11.07;4.07;;;25.00;99.90;;;;;;5050350;28;20212;-83
2022/06/10 10:38:34;;;;;;;10.35;4.32;;;25.00;99.90;;;;;;5051348;28;20262;-82
2022/06/10 10:41:11;;;;;;;13.25;5.10;;;24.90;99.90;;;;;;5050524;28;20241;-82
2022/06/10 10:43:37;;;;;;;13.27;3.97;;;25.00;99.90;;;;;;5052463;28;20170;-82
2022/06/10 10:46:30;;;;;;;12.38;4.35;;;25.50;99.90;;;;;;5050882;28;20171;-82
2022/06/10 10:48:57;;;;;;;19.42;4.75;;;25.90;99.90;;;;;;5050917;28;20721;-83
2022/06/10 10:51:50;;;;;;;7.75;3.72;;;25.60;99.90;;;;;;5052153;28;20220;-83
2022/06/10 10:54:27;;;;;;;8.82;3.97;;;25.40;99.90;;;;;;5050239;28;20252;-83
2022/06/10 10:56:54;;;;;;;8.18;5.10;;;25.50;99.90;;;;;;5050590;28;20253;-82
2022/06/10 10:59:30;;;;;;;8.20;3.85;;;25.30;99.90;;;;;;5050509;28;20206;-82
2022/06/10 11:01:56;;;;;;;9.98;2.60;;;25.50;99.90;;;;;;5051922;28;20571;-82
2022/06/10 11:04:32;;;;;;;11.65;2.78;;;25.40;99.90;;;;;;5050894;28;20171;-82
2022/06/10 11:07:20;;;;;;;16.45;3.05;;;25.80;99.90;;;;;;5051145;28;20182;-83
2022/06/10 11:09:49;;;;;;;11.50;2.70;;;25.90;99.90;;;;;;5050696;28;20286;-82
2022/06/10 11:12:33;;;;;;;7.07;2.30;;;25.90;99.90;;;;;;5052293;28;20604;-83
2022/06/10 11:15:15;;;;;;;10.32;2.50;;;26.00;99.90;;;;;;5051240;28;20295;-82
2022/06/10 11:17:43;;;;;;;10.18;2.60;;;26.00;99.90;;;;;;5050831;28;20178;-82
2022/06/10 11:20:15;;;;;;;10.98;2.88;;;26.00;99.90;;;;;;5051680;28;20202;-82
2022/06/10 11:22:43;;;;;;;22.83;2.80;;;26.10;99.90;;;;;;5050306;28;20211;-83
2022/06/10 11:25:14;;;;;;;9.73;2.53;;;25.80;99.90;;;;;;5050542;28;20190;-82
2022/06/10 11:27:57;;;;;;;5.40;2.03;;;25.70;99.90;;;;;;5050632;28;20537;-83
2022/06/10 11:30:31;;;;;;;12.98;2.00;;;25.60;99.90;;;;;;5051888;28;20657;-83
2022/06/10 11:33:02;;;;;;;7.50;1.83;;;25.60;99.90;;;;;;5050431;28;20175;-82
2022/06/10 11:35:35;;;;;;;6.13;2.78;;;25.60;99.90;;;;;;5050442;28;20208;-82
2022/06/10 11:38:03;;;;;;;8.85;2.17;;;25.60;99.90;;;;;;5050549;28;20179;-83
2022/06/10 11:40:41;;;;;;;7.35;2.13;;;25.70;99.90;;;;;;5050524;28;20234;-82
2022/06/10 11:43:15;;;;;;;13.00;2.67;;;25.90;99.90;;;;;;5052062;28;20586;-82
2022/06/10 11:45:53;;;;;;;5.18;2.00;;;25.80;99.90;;;;;;5051235;28;20175;-82
2022/06/10 11:48:49;;;;;;;9.00;1.60;;;25.60;99.90;;;;;;5054468;28;20221;-81
2022/06/10 11:51:35;;;;;;;7.50;2.08;;;25.50;99.90;;;;;;5054605;28;20174;-82
2022/06/10 11:54:06;;;;;;;13.27;1.67;;;25.50;99.90;;;;;;5055771;28;20159;-82
2022/06/10 11:59:45;;;;;;;13.82;1.55;;;26.30;99.90;;;;;;5055055;28;20325;-82
2022/06/10 12:02:23;;;;;;;10.52;2.10;;;26.30;99.90;;;;;;5053848;28;20198;-82
2022/06/10 12:05:06;;;;;;;8.20;1.95;;;26.30;99.90;;;;;;5053777;28;20225;-81
2022/06/10 12:07:37;;;;;;;6.63;1.98;;;26.20;99.90;;;;;;5053740;28;20278;-81
2022/06/10 12:10:07;;;;;;;4.85;2.03;;;26.20;99.90;;;;;;5053987;28;20248;-82
2022/06/10 12:12:38;;;;;;;14.65;1.75;;;26.20;99.90;;;;;;5055136;28;20167;-81
2022/06/10 12:15:27;;;;;;;5.28;1.67;;;26.00;99.90;;;;;;5054163;28;20195;-82
2022/06/10 12:17:56;;;;;;;4.00;1.70;;;26.30;99.90;;;;;;5055114;28;20658;-82
2022/06/10 12:20:43;;;;;;;8.82;1.90;;;26.50;99.90;;;;;;5055838;28;20218;-82
2022/06/10 12:23:23;;;;;;;4.43;1.85;;;26.40;99.90;;;;;;5060066;28;20197;-81
2022/06/10 12:26:00;;;;;;;11.05;1.85;;;26.50;99.90;;;;;;5061370;28;20201;-82
2022/06/10 12:28:44;;;;;;;17.23;1.77;;;26.60;99.90;;;;;;5060193;28;20175;-82
2022/06/10 12:31:25;;;;;;;2.88;1.60;;;26.70;99.90;;;;;;5053685;28;20171;-83
2022/06/10 12:34:02;;;;;;;6.68;1.63;;;26.70;99.90;;;;;;5053791;28;20185;-83
2022/06/10 12:36:39;;;;;;;10.45;1.73;;;26.50;99.90;;;;;;5054630;28;20174;-82
2022/06/10 12:39:17;;;;;;;4.82;1.60;;;26.10;99.90;;;;;;5052975;28;20202;-82
2022/06/10 12:41:48;;;;;;;14.32;1.65;;;25.90;99.90;;;;;;5053978;28;20675;-83
2022/06/10 12:44:28;;;;;;;13.05;2.03;;;26.10;99.90;;;;;;5054359;28;20167;-83
2022/06/10 12:46:59;;;;;;;10.48;3.00;;;26.10;99.90;;;;;;5053139;28;20163;-84
2022/06/10 12:49:46;;;;;;;9.38;1.95;;;26.00;99.90;;;;;;5053039;28;20550;-83
2022/06/10 12:52:30;;;;;;;8.57;1.80;;;26.30;99.90;;;;;;5054232;28;20198;-84
2022/06/10 12:55:00;;;;;;;10.70;1.30;;;26.20;99.90;;;;;;5054179;28;20171;-82
2022/06/10 12:57:42;;;;;;;8.40;1.70;;;25.80;99.90;;;;;;5053202;28;20171;-82
2022/06/10 13:00:17;;;;;;;11.77;1.73;;;25.70;99.90;;;;;;5052907;28;20298;-82
2022/06/10 13:02:44;;;;;;;7.55;1.55;;;25.80;99.90;;;;;;5052592;28;20206;-82
2022/06/10 13:05:43;;;;;;;5.28;1.63;;;25.80;99.90;;;;;;5052420;28;20171;-82
2022/06/10 13:08:34;;;;;;;7.97;1.98;;;25.70;99.90;;;;;;5054314;28;20266;-82
2022/06/10 13:11:02;;;;;;;4.43;1.45;;;25.60;99.90;;;;;;5052704;28;20240;-83
2022/06/10 13:13:28;;;;;;;9.70;2.00;;;25.50;99.90;;;;;;5052955;28;20571;-85
2022/06/10 13:16:15;;;;;;;12.70;1.58;;;25.80;99.90;;;;;;5057480;28;20217;-82
2022/06/10 13:18:53;;;;;;;4.05;1.45;;;26.00;99.90;;;;;;5053858;28;20604;-81
2022/06/10 13:21:31;;;;;;;9.00;1.38;;;25.90;99.90;;;;;;5058622;28;20198;-82
2022/06/10 13:24:00;;;;;;;9.25;1.30;;;25.70;99.90;;;;;;5052555;28;20244;-84
2022/06/10 13:26:28;;;;;;;21.70;1.77;;;25.20;99.90;;;;;;5052500;28;20171;-83
2022/06/10 13:29:21;;;;;;;8.77;1.60;;;25.30;99.90;;;;;;5052298;28;20198;-82